createdAt,value
2023-03-29T00:03:30.943Z,6.20
2023-03-29T00:08:38.171Z,6.20
2023-03-29T00:13:40.655Z,6.20
2023-03-29T00:18:42.916Z,6.20
2023-03-29T00:23:45.062Z,6.20
2023-03-29T00:28:47.256Z,6.10
2023-03-29T00:33:49.433Z,6.20
2023-03-29T00:38:51.780Z,6.00
2023-03-29T00:43:57.146Z,6.10
2023-03-29T00:49:07.434Z,6.10
2023-03-29T00:54:15.156Z,6.00
2023-03-29T00:59:23.613Z,6.00
2023-03-29T01:04:43.641Z,5.90
2023-03-29T01:09:56.179Z,6.00
2023-03-29T01:15:04.484Z,5.90
2023-03-29T01:20:19.367Z,5.90
2023-03-29T01:25:38.224Z,6.00
2023-03-29T01:30:48.475Z,6.10
2023-03-29T01:35:57.910Z,6.10
2023-03-29T01:41:03.160Z,6.10
2023-03-29T01:46:08.928Z,6.00
2023-03-29T01:51:24.811Z,5.90
2023-03-29T01:56:29.347Z,5.80
2023-03-29T02:01:40.428Z,5.70
2023-03-29T02:06:43.539Z,5.70
2023-03-29T02:11:47.639Z,5.70
2023-03-29T02:16:50.191Z,5.70
2023-03-29T02:22:07.462Z,5.80
2023-03-29T02:27:09.741Z,5.80
2023-03-29T02:32:21.282Z,5.80
2023-03-29T02:37:26.802Z,5.70
2023-03-29T02:42:31.646Z,5.70
2023-03-29T02:47:39.553Z,5.70
2023-03-29T02:52:47.240Z,5.70
2023-03-29T02:57:49.511Z,5.70
2023-03-29T03:02:52.277Z,5.70
2023-03-29T03:07:55.023Z,5.70
2023-03-29T03:12:57.303Z,5.70
2023-03-29T03:18:00.892Z,5.80
2023-03-29T03:23:05.817Z,5.80
2023-03-29T03:28:08.679Z,5.70
2023-03-29T03:33:11.817Z,5.70
2023-03-29T03:38:29.970Z,5.70
2023-03-29T03:43:35.793Z,5.70
2023-03-29T03:48:38.361Z,5.70
2023-03-29T03:53:44.406Z,5.70
2023-03-29T03:58:49.560Z,5.70
2023-03-29T04:03:54.637Z,5.70
2023-03-29T04:08:58.415Z,5.80
2023-03-29T04:14:09.609Z,5.80
2023-03-29T04:19:35.459Z,5.80
2023-03-29T04:24:37.727Z,5.70
2023-03-29T04:30:00.188Z,5.70
2023-03-29T04:35:22.297Z,5.80
2023-03-29T04:40:24.874Z,5.70
2023-03-29T04:45:37.724Z,5.80
2023-03-29T04:51:00.517Z,5.80
2023-03-29T04:56:03.278Z,5.80
2023-03-29T05:01:29.229Z,5.80
2023-03-29T05:06:33.625Z,5.80
2023-03-29T05:11:37.184Z,5.90
2023-03-29T05:16:39.513Z,5.90
2023-03-29T05:21:43.730Z,5.90
2023-03-29T05:26:52.112Z,5.90
2023-03-29T05:31:55.483Z,5.90
2023-03-29T05:36:59.320Z,5.90
2023-03-29T05:42:06.688Z,5.90
2023-03-29T05:47:20.828Z,5.90
2023-03-29T05:52:24.781Z,5.90
2023-03-29T05:57:27.609Z,5.90
2023-03-29T06:02:30.178Z,6.00
2023-03-29T06:07:33.769Z,6.10
2023-03-29T06:13:01.819Z,6.10
2023-03-29T06:18:07.745Z,6.20
2023-03-29T06:23:11.427Z,6.30
2023-03-29T06:28:14.691Z,6.50
2023-03-29T06:33:17.277Z,6.60
2023-03-29T06:38:21.001Z,6.70
2023-03-29T06:43:42.065Z,6.70
2023-03-29T06:48:50.465Z,6.70
2023-03-29T06:53:54.282Z,6.70
2023-03-29T06:58:56.948Z,6.80
2023-03-29T07:04:11.924Z,7.00
2023-03-29T07:09:36.079Z,7.10
2023-03-29T07:15:08.970Z,7.10
2023-03-29T07:20:32.269Z,7.10
2023-03-29T07:25:41.912Z,7.10
2023-03-29T07:30:44.588Z,7.00
2023-03-29T07:35:53.447Z,6.90
2023-03-29T07:40:56.420Z,6.90
2023-03-29T07:46:36.995Z,6.80
2023-03-29T07:51:39.826Z,6.70
2023-03-29T07:56:45.430Z,6.70
2023-03-29T08:02:04.332Z,6.90
2023-03-29T08:07:12.691Z,7.00
2023-03-29T08:12:33.126Z,7.10
2023-03-29T08:17:37.910Z,7.30
2023-03-29T08:22:41.361Z,7.30
2023-03-29T08:27:52.515Z,7.30
2023-03-29T08:33:09.556Z,7.50
2023-03-29T08:38:12.788Z,7.80
2023-03-29T08:43:52.734Z,8.00
2023-03-29T08:49:12.388Z,7.70
2023-03-29T08:54:22.033Z,7.40
2023-03-29T08:59:45.829Z,7.40
2023-03-29T09:04:53.182Z,7.70
2023-03-29T09:10:05.812Z,7.80
2023-03-29T09:16:06.338Z,7.90
2023-03-29T09:21:30.012Z,7.90
2023-03-29T09:26:47.908Z,8.10
2023-03-29T09:32:06.883Z,8.30
2023-03-29T09:37:22.055Z,8.40
2023-03-29T09:42:29.263Z,8.60
2023-03-29T09:47:44.987Z,8.80
2023-03-29T09:52:49.777Z,8.90
2023-03-29T09:58:02.702Z,8.90
2023-03-29T10:03:36.359Z,9.10
2023-03-29T10:08:50.718Z,9.30
2023-03-29T10:13:57.674Z,9.60
2023-03-29T10:19:19.401Z,9.70
2023-03-29T10:24:26.888Z,9.60
2023-03-29T10:29:42.725Z,9.70
2023-03-29T10:34:48.018Z,10.30
2023-03-29T10:39:50.726Z,10.80
2023-03-29T10:44:55.534Z,11.00
2023-03-29T10:49:59.021Z,10.80
2023-03-29T10:55:01.257Z,10.70
2023-03-29T11:00:34.655Z,10.60
2023-03-29T11:06:06.097Z,11.10
2023-03-29T11:11:09.039Z,11.60
2023-03-29T11:16:30.096Z,11.40
2023-03-29T11:22:16.667Z,13.50
2023-03-29T11:27:56.431Z,14.70
2023-03-29T11:33:22.039Z,14.00
2023-03-29T11:38:39.455Z,13.50
2023-03-29T11:44:13.602Z,13.70
2023-03-29T11:49:31.720Z,14.10
2023-03-29T11:54:34.774Z,13.50
2023-03-29T11:59:42.008Z,13.10
2023-03-29T12:04:49.563Z,13.00
2023-03-29T12:09:56.402Z,13.00
2023-03-29T12:15:07.376Z,12.90
2023-03-29T12:20:23.568Z,12.80
2023-03-29T12:25:52.322Z,12.80
2023-03-29T12:31:23.475Z,12.70
2023-03-29T12:36:52.405Z,12.90
2023-03-29T12:42:30.731Z,13.10
2023-03-29T12:47:55.654Z,13.60
2023-03-29T12:53:16.884Z,14.40
2023-03-29T12:58:26.922Z,14.60
2023-03-29T13:03:49.079Z,14.10
2023-03-29T13:09:03.643Z,13.80
2023-03-29T13:14:19.111Z,13.90
2023-03-29T13:19:57.208Z,14.20
2023-03-29T13:25:14.537Z,13.80
2023-03-29T13:30:45.344Z,13.80
2023-03-29T13:36:08.976Z,13.90
2023-03-29T13:41:29.073Z,13.90
2023-03-29T13:46:42.530Z,14.30
2023-03-29T13:51:53.982Z,14.80
2023-03-29T13:57:05.286Z,15.10
2023-03-29T14:02:07.738Z,14.90
2023-03-29T14:07:14.439Z,15.40
2023-03-29T14:12:18.132Z,15.70
2023-03-29T14:17:22.958Z,15.40
2023-03-29T14:22:30.860Z,14.80
2023-03-29T14:27:37.340Z,14.40
2023-03-29T14:32:39.877Z,13.80
2023-03-29T14:37:46.630Z,13.80
2023-03-29T14:42:51.038Z,14.00
2023-03-29T14:47:53.657Z,14.20
2023-03-29T14:52:58.505Z,14.30
2023-03-29T14:58:00.784Z,14.50
2023-03-29T15:03:03.618Z,14.10
2023-03-29T15:08:10.543Z,14.00
2023-03-29T15:13:19.847Z,13.90
2023-03-29T15:18:28.747Z,13.90
2023-03-29T15:23:51.942Z,14.00
2023-03-29T15:29:12.679Z,13.90
2023-03-29T15:34:26.083Z,13.70
2023-03-29T15:39:29.566Z,13.60
2023-03-29T15:44:38.892Z,13.50
2023-03-29T15:49:41.319Z,13.60
2023-03-29T15:54:43.969Z,13.60
2023-03-29T15:59:46.454Z,13.50
2023-03-29T16:04:48.733Z,13.50
2023-03-29T16:09:51.158Z,13.40
2023-03-29T16:14:53.404Z,13.00
2023-03-29T16:19:55.652Z,12.90
2023-03-29T16:24:57.802Z,12.70
2023-03-29T16:30:00.223Z,12.70
2023-03-29T16:35:02.824Z,12.60
2023-03-29T16:40:07.905Z,12.60
2023-03-29T16:45:19.562Z,12.60
2023-03-29T16:50:22.323Z,12.50
2023-03-29T16:55:24.889Z,12.40
2023-03-29T17:00:27.234Z,12.30
2023-03-29T17:05:30.326Z,12.20
2023-03-29T17:10:32.896Z,12.10
2023-03-29T17:15:38.155Z,12.00
2023-03-29T17:20:41.774Z,12.00
2023-03-29T17:25:44.386Z,11.90
2023-03-29T17:30:48.035Z,11.80
2023-03-29T17:35:50.323Z,11.80
2023-03-29T17:40:56.052Z,11.70
2023-03-29T17:45:58.556Z,11.70
2023-03-29T17:51:01.024Z,11.70
2023-03-29T17:56:03.732Z,11.70
2023-03-29T18:01:10.783Z,11.60
2023-03-29T18:06:13.510Z,11.50
2023-03-29T18:11:28.515Z,11.50
2023-03-29T18:16:30.786Z,11.50
2023-03-29T18:21:33.063Z,11.40
2023-03-29T18:26:35.439Z,11.40
2023-03-29T18:31:37.803Z,11.30
2023-03-29T18:36:40.007Z,11.30
2023-03-29T18:41:42.228Z,11.30
2023-03-29T18:46:44.653Z,11.20
2023-03-29T18:51:47.854Z,11.20
2023-03-29T18:56:50.194Z,11.10
2023-03-29T19:01:52.482Z,11.20
2023-03-29T19:06:56.211Z,11.20
2023-03-29T19:11:58.519Z,11.20
2023-03-29T19:17:00.912Z,11.10
2023-03-29T19:22:03.317Z,11.00
2023-03-29T19:27:06.650Z,11.00
2023-03-29T19:32:08.976Z,10.90
2023-03-29T19:37:11.296Z,10.90
2023-03-29T19:42:13.557Z,10.90
2023-03-29T19:47:15.903Z,10.90
2023-03-29T19:52:18.305Z,10.80
2023-03-29T19:57:21.617Z,10.80
2023-03-29T20:02:23.880Z,10.80
2023-03-29T20:07:26.349Z,10.80
2023-03-29T20:12:28.557Z,10.70
2023-03-29T20:17:31.909Z,10.60
2023-03-29T20:22:34.074Z,10.60
2023-03-29T20:27:36.374Z,10.60
2023-03-29T20:32:38.600Z,10.50
2023-03-29T20:37:40.926Z,10.50
2023-03-29T20:42:43.153Z,10.40
2023-03-29T20:47:57.952Z,10.40
2023-03-29T20:53:03.816Z,10.40
2023-03-29T20:58:07.962Z,10.40
2023-03-29T21:03:11.426Z,10.40
2023-03-29T21:08:17.698Z,10.40
2023-03-29T21:13:19.928Z,10.40
2023-03-29T21:18:23.571Z,10.30
2023-03-29T21:23:26.441Z,10.20
2023-03-29T21:28:29.039Z,10.30
2023-03-29T21:33:31.331Z,10.30
2023-03-29T21:38:33.625Z,10.30
2023-03-29T21:43:36.039Z,10.30
2023-03-29T21:48:38.519Z,10.30
2023-03-29T21:53:41.502Z,10.40
2023-03-29T21:58:43.851Z,10.30
2023-03-29T22:03:46.560Z,10.40
2023-03-29T22:08:53.238Z,10.40
2023-03-29T22:13:55.863Z,10.50
2023-03-29T22:18:58.236Z,10.50
2023-03-29T22:24:01.493Z,10.50
2023-03-29T22:29:04.118Z,10.50
2023-03-29T22:34:06.894Z,10.50
2023-03-29T22:39:09.239Z,10.50
2023-03-29T22:44:12.020Z,10.50
2023-03-29T22:49:15.192Z,10.50
2023-03-29T22:54:17.895Z,10.40
2023-03-29T22:59:20.327Z,10.40
2023-03-29T23:04:22.546Z,10.30
2023-03-29T23:09:25.017Z,10.30
2023-03-29T23:14:27.322Z,10.30
2023-03-29T23:19:29.582Z,10.20
2023-03-29T23:24:31.898Z,10.30
2023-03-29T23:29:34.690Z,10.20
2023-03-29T23:34:37.017Z,10.30
2023-03-29T23:39:39.629Z,10.30
2023-03-29T23:44:42.147Z,10.40
2023-03-29T23:49:45.514Z,10.40
2023-03-29T23:54:48.081Z,10.40
2023-03-29T23:59:52.840Z,10.40
